Time;durP1;ratioP1;P1;durP2;ratioP2;P2;SDS_P1;SDS_P2;PMS_P1;PMS_P2;Temp;Humidity;BMP_temperature;BMP_pressure;BME280_temperature;BME280_humidity;BME280_pressure;Samples;Min_cycle;Max_cycle;Signal;HPM_P1;HPM_P2
2021/08/02 00:00:46;;;;;;;4.53;2.50;;;12.90;99.90;;;;;;5074417;28;20045;-75
2021/08/02 00:03:46;;;;;;;7.25;2.58;;;12.90;99.90;;;;;;5074711;28;20134;-75
2021/08/02 00:06:21;;;;;;;6.93;2.95;;;12.90;99.90;;;;;;5071803;28;20090;-74
2021/08/02 00:08:56;;;;;;;6.50;2.28;;;12.90;99.90;;;;;;5078903;28;20085;-75
2021/08/02 00:11:29;;;;;;;5.40;2.35;;;12.90;99.90;;;;;;5074914;28;21951;-75
2021/08/02 00:13:58;;;;;;;10.23;2.70;;;12.90;99.90;;;;;;5074443;28;20525;-75
2021/08/02 00:16:24;;;;;;;7.45;2.72;;;12.90;99.90;;;;;;5076999;28;20094;-75
2021/08/02 00:18:50;;;;;;;7.05;2.55;;;12.90;99.90;;;;;;5058313;28;20438;-75
2021/08/02 00:21:15;;;;;;;7.70;3.05;;;12.90;99.90;;;;;;5074189;28;20052;-75
2021/08/02 00:23:41;;;;;;;3.97;2.15;;;12.90;99.90;;;;;;5073075;28;20066;-76
2021/08/02 00:26:09;;;;;;;6.97;2.40;;;12.90;99.90;;;;;;5076369;28;20045;-76
2021/08/02 00:28:39;;;;;;;5.20;2.50;;;12.90;99.90;;;;;;5074325;28;20068;-75
2021/08/02 00:31:05;;;;;;;8.48;2.63;;;13.00;99.90;;;;;;5060804;28;20062;-75
2021/08/02 00:33:37;;;;;;;6.05;2.90;;;13.00;99.90;;;;;;5073147;28;20521;-74
2021/08/02 00:36:08;;;;;;;7.60;2.97;;;13.00;99.90;;;;;;5044080;28;20482;-74
2021/08/02 00:38:43;;;;;;;6.65;2.42;;;13.00;99.90;;;;;;5071861;28;20051;-75
2021/08/02 00:41:15;;;;;;;8.15;2.90;;;13.00;99.90;;;;;;5072349;28;20051;-76
2021/08/02 00:44:03;;;;;;;3.60;2.25;;;13.00;99.90;;;;;;5073107;28;20048;-75
2021/08/02 00:46:37;;;;;;;7.43;2.90;;;13.00;99.90;;;;;;5078322;28;20047;-75
2021/08/02 00:49:06;;;;;;;6.88;2.53;;;13.00;99.90;;;;;;5089750;28;20042;-75
2021/08/02 00:51:49;;;;;;;6.90;2.13;;;13.00;99.90;;;;;;5073104;28;20040;-76
2021/08/02 00:54:16;;;;;;;7.35;2.55;;;13.00;99.90;;;;;;5074152;28;20166;-76
2021/08/02 00:56:45;;;;;;;9.90;2.70;;;13.00;99.90;;;;;;5072617;28;20060;-75
2021/08/02 00:59:12;;;;;;;;;;;13.10;99.90;;;;;;5073940;28;20043;-77
2021/08/02 01:01:42;;;;;;;6.35;2.25;;;13.10;99.90;;;;;;5072388;28;20297;-76
2021/08/02 01:04:09;;;;;;;5.82;2.63;;;13.00;99.90;;;;;;5072746;28;20490;-75
2021/08/02 01:06:40;;;;;;;7.60;2.30;;;13.00;99.90;;;;;;5075581;28;20044;-75
2021/08/02 01:09:07;;;;;;;6.50;3.10;;;13.00;99.90;;;;;;5067285;28;20047;-76
2021/08/02 01:11:34;;;;;;;4.18;2.05;;;13.10;99.90;;;;;;5073134;28;20112;-76
2021/08/02 01:14:06;;;;;;;6.68;2.28;;;13.10;99.90;;;;;;5076906;28;20048;-74
2021/08/02 01:16:35;;;;;;;4.13;2.40;;;13.10;99.90;;;;;;5070623;28;20024;-73
2021/08/02 01:19:08;;;;;;;6.82;2.30;;;13.10;99.90;;;;;;5072726;28;20076;-74
2021/08/02 01:21:40;;;;;;;4.95;2.40;;;13.10;99.90;;;;;;5076720;28;20064;-73
2021/08/02 01:24:11;;;;;;;6.22;2.60;;;13.10;99.90;;;;;;5073840;28;20075;-75
2021/08/02 01:26:43;;;;;;;;;;;13.20;99.90;;;;;;5063838;28;20040;-75
2021/08/02 01:29:46;;;;;;;8.27;2.55;;;13.10;99.90;;;;;;5073267;28;19967;-75
2021/08/02 01:32:13;;;;;;;5.75;2.63;;;13.10;99.90;;;;;;5078460;28;20406;-75
2021/08/02 01:34:43;;;;;;;6.90;1.98;;;13.10;99.90;;;;;;5077741;28;20044;-76
2021/08/02 01:37:09;;;;;;;8.80;2.60;;;13.10;99.90;;;;;;5076819;28;20033;-76
2021/08/02 01:39:35;;;;;;;9.30;2.63;;;13.10;99.90;;;;;;5065009;28;20044;-74
2021/08/02 01:42:03;;;;;;;8.15;2.85;;;13.20;99.90;;;;;;5071471;28;20032;-74
2021/08/02 01:44:29;;;;;;;7.90;2.38;;;13.20;99.90;;;;;;5075105;28;20860;-74
2021/08/02 01:47:23;;;;;;;9.20;2.72;;;13.20;99.90;;;;;;5076172;28;20051;-75
2021/08/02 01:50:20;;;;;;;7.18;2.50;;;13.20;99.90;;;;;;5067180;28;20044;-74
2021/08/02 01:53:00;;;;;;;4.97;2.13;;;13.20;99.90;;;;;;5071549;28;20036;-75
2021/08/02 01:55:26;;;;;;;7.20;2.30;;;13.20;99.90;;;;;;5076969;28;20032;-76
2021/08/02 01:58:04;;;;;;;7.47;2.67;;;13.20;99.90;;;;;;5069605;28;20490;-75
2021/08/02 02:00:36;;;;;;;7.15;2.15;;;13.20;99.90;;;;;;5077359;28;20119;-76
2021/08/02 02:03:10;;;;;;;5.55;2.13;;;13.20;99.90;;;;;;5083099;28;20039;-74
2021/08/02 02:05:48;;;;;;;6.82;2.50;;;13.20;99.90;;;;;;5083867;28;20071;-75
2021/08/02 02:08:30;;;;;;;6.82;2.72;;;13.20;99.90;;;;;;5077601;28;20131;-74
2021/08/02 02:10:59;;;;;;;6.43;2.95;;;13.20;99.90;;;;;;5084464;28;20068;-74
2021/08/02 02:13:35;;;;;;;7.20;2.47;;;13.20;99.90;;;;;;5074448;28;20593;-75
2021/08/02 02:16:03;;;;;;;6.53;2.20;;;13.10;99.90;;;;;;5076101;28;20043;-75
2021/08/02 02:18:35;;;;;;;6.72;2.75;;;13.20;99.90;;;;;;5073147;28;20872;-75
2021/08/02 02:21:07;;;;;;;5.88;1.85;;;13.20;99.90;;;;;;5081641;28;20089;-75
2021/08/02 02:23:33;;;;;;;8.10;2.70;;;13.10;99.90;;;;;;5086313;28;20040;-75
2021/08/02 02:26:00;;;;;;;6.88;2.55;;;13.10;99.90;;;;;;5084581;28;20043;-73
2021/08/02 02:28:26;;;;;;;6.03;1.95;;;13.00;99.90;;;;;;5084954;28;20039;-74
2021/08/02 02:30:53;;;;;;;9.02;3.00;;;13.00;99.90;;;;;;5065027;28;20399;-74
2021/08/02 02:33:20;;;;;;;6.75;2.03;;;13.00;99.90;;;;;;5085766;28;20115;-74
2021/08/02 02:35:49;;;;;;;10.90;2.40;;;13.00;99.90;;;;;;5081313;28;20040;-74
2021/08/02 02:38:17;;;;;;;7.50;2.60;;;12.90;99.90;;;;;;5080301;28;20391;-74
2021/08/02 02:40:45;;;;;;;6.28;2.03;;;12.90;99.90;;;;;;5083094;28;20036;-74
2021/08/02 02:43:12;;;;;;;4.45;2.28;;;12.90;99.90;;;;;;5067423;28;20649;-75
2021/08/02 02:45:40;;;;;;;7.03;2.50;;;12.90;99.90;;;;;;5078663;28;20076;-74
2021/08/02 02:48:07;;;;;;;5.38;2.08;;;12.90;99.90;;;;;;5077773;28;20119;-74
2021/08/02 02:50:35;;;;;;;7.15;2.25;;;12.90;99.90;;;;;;5079582;28;20040;-74
2021/08/02 02:53:03;;;;;;;8.20;2.78;;;12.90;99.90;;;;;;5070434;28;20040;-74
2021/08/02 02:55:31;;;;;;;5.05;2.53;;;12.90;99.90;;;;;;5073025;28;20578;-74
2021/08/02 02:57:58;;;;;;;6.80;2.67;;;12.90;99.90;;;;;;5078599;28;20054;-76
2021/08/02 03:00:24;;;;;;;4.30;1.77;;;12.80;99.90;;;;;;5079600;28;20094;-75
2021/08/02 03:02:54;;;;;;;5.63;2.28;;;12.80;99.90;;;;;;5073600;28;20086;-74
2021/08/02 03:05:22;;;;;;;6.63;2.40;;;12.80;99.90;;;;;;5075867;28;20062;-75
2021/08/02 03:07:55;;;;;;;8.90;2.80;;;12.80;99.90;;;;;;5073163;28;20036;-74
2021/08/02 03:10:23;;;;;;;6.45;2.30;;;12.80;99.90;;;;;;5075285;28;20048;-75
2021/08/02 03:12:53;;;;;;;8.70;2.60;;;12.70;99.90;;;;;;5072309;28;20059;-75
2021/08/02 03:15:19;;;;;;;7.07;2.53;;;12.70;99.90;;;;;;5065147;28;20044;-75
2021/08/02 03:17:47;;;;;;;6.55;2.40;;;12.60;99.90;;;;;;5080715;28;20343;-76
2021/08/02 03:20:16;;;;;;;4.93;2.20;;;12.60;99.90;;;;;;5072914;28;20028;-75
2021/08/02 03:22:54;;;;;;;6.68;2.50;;;12.50;99.90;;;;;;5079256;28;20040;-75
2021/08/02 03:25:33;;;;;;;8.85;2.78;;;12.50;99.90;;;;;;5073124;28;20055;-75
2021/08/02 03:28:23;;;;;;;9.52;2.55;;;12.50;99.90;;;;;;5077835;28;20387;-74
2021/08/02 03:30:50;;;;;;;8.07;2.53;;;12.50;99.90;;;;;;5078873;28;20059;-74
2021/08/02 03:33:26;;;;;;;9.07;2.67;;;12.50;99.90;;;;;;5076194;28;20040;-74
2021/08/02 03:35:54;;;;;;;11.27;3.28;;;12.50;99.90;;;;;;5075722;28;20035;-75
2021/08/02 03:38:21;;;;;;;8.90;2.88;;;12.50;99.90;;;;;;5056262;28;20041;-75
2021/08/02 03:40:47;;;;;;;7.07;2.40;;;12.40;99.90;;;;;;5083661;28;20406;-75
2021/08/02 03:43:16;;;;;;;7.53;3.13;;;12.40;99.90;;;;;;5076039;28;20040;-76
2021/08/02 03:45:42;;;;;;;10.00;3.33;;;12.40;99.90;;;;;;5075670;28;20050;-75
2021/08/02 03:48:19;;;;;;;4.50;2.55;;;12.40;99.90;;;;;;5077501;28;20085;-75
2021/08/02 03:50:46;;;;;;;7.65;2.80;;;12.30;99.90;;;;;;5074231;28;20444;-76
2021/08/02 03:53:12;;;;;;;6.50;2.83;;;12.30;99.90;;;;;;5077047;28;20032;-76
2021/08/02 03:55:43;;;;;;;9.23;2.90;;;12.30;99.90;;;;;;5073931;28;20036;-76
2021/08/02 03:58:12;;;;;;;7.57;2.80;;;12.20;99.90;;;;;;5056369;28;20040;-76
2021/08/02 04:00:38;;;;;;;6.82;3.13;;;12.20;99.90;;;;;;5066890;28;20115;-75
2021/08/02 04:03:05;;;;;;;6.25;3.15;;;12.20;99.90;;;;;;5081201;28;20076;-76
2021/08/02 04:05:31;;;;;;;9.75;3.20;;;12.10;99.90;;;;;;5078936;28;20051;-76
2021/08/02 04:08:00;;;;;;;12.80;3.80;;;12.10;99.90;;;;;;5070725;28;20048;-75
2021/08/02 04:10:27;;;;;;;4.38;2.40;;;12.00;99.90;;;;;;5079309;28;20097;-75
2021/08/02 04:12:54;;;;;;;3.97;2.38;;;12.00;99.90;;;;;;5076403;28;20085;-75
2021/08/02 04:15:26;;;;;;;9.20;2.97;;;12.00;99.90;;;;;;5052714;28;20040;-75
2021/08/02 04:17:52;;;;;;;6.72;2.17;;;11.90;99.90;;;;;;5084553;28;20036;-74
2021/08/02 04:20:19;;;;;;;5.50;3.05;;;11.90;99.90;;;;;;5065948;28;20035;-76
2021/08/02 04:22:48;;;;;;;7.53;2.80;;;11.90;99.90;;;;;;5071502;28;20039;-74
2021/08/02 04:25:15;;;;;;;8.23;3.00;;;11.90;99.90;;;;;;5078851;28;20032;-75
2021/08/02 04:27:40;;;;;;;8.98;3.40;;;11.90;99.90;;;;;;5085347;28;20040;-75
2021/08/02 04:30:07;;;;;;;8.15;2.70;;;11.90;99.90;;;;;;5054555;28;20398;-75
2021/08/02 04:32:34;;;;;;;5.53;2.80;;;11.90;99.90;;;;;;5063824;28;20040;-76
2021/08/02 04:35:03;;;;;;;7.97;2.80;;;11.80;99.90;;;;;;5046933;28;20437;-74
2021/08/02 04:37:29;;;;;;;8.10;3.22;;;11.90;99.90;;;;;;5067748;28;20219;-75
2021/08/02 04:39:55;;;;;;;3.63;2.35;;;11.90;99.90;;;;;;5065121;28;20063;-75
2021/08/02 04:42:21;;;;;;;9.27;3.15;;;11.80;99.90;;;;;;5054133;28;20041;-75
2021/08/02 04:44:46;;;;;;;9.27;3.00;;;11.80;99.90;;;;;;5075450;28;20059;-75
2021/08/02 04:47:12;;;;;;;7.22;3.13;;;11.90;99.90;;;;;;5082835;28;20491;-75
2021/08/02 04:49:41;;;;;;;6.50;3.20;;;11.90;99.90;;;;;;5045550;28;20036;-76
2021/08/02 04:52:07;;;;;;;6.30;3.03;;;11.90;99.90;;;;;;5059241;28;20040;-75
2021/08/02 04:54:33;;;;;;;6.07;2.90;;;11.90;99.90;;;;;;5084548;28;20406;-75
2021/08/02 04:56:59;;;;;;;6.38;3.20;;;11.90;99.90;;;;;;5046894;28;20036;-75
2021/08/02 04:59:25;;;;;;;3.60;2.45;;;12.00;99.90;;;;;;5074155;28;20033;-75
2021/08/02 05:01:51;;;;;;;8.82;3.35;;;12.00;99.90;;;;;;5065106;28;20543;-73
2021/08/02 05:04:17;;;;;;;8.52;3.00;;;12.10;99.90;;;;;;5072929;28;20086;-74
2021/08/02 05:06:43;;;;;;;5.63;2.92;;;12.20;99.90;;;;;;5086177;28;20067;-74
2021/08/02 05:09:09;;;;;;;7.85;3.42;;;12.30;99.90;;;;;;5081839;28;20036;-74
2021/08/02 05:11:38;;;;;;;8.95;3.45;;;12.30;99.90;;;;;;5067840;28;20028;-74
2021/08/02 05:14:07;;;;;;;7.50;3.13;;;12.40;99.90;;;;;;5073036;28;20127;-75
2021/08/02 05:16:33;;;;;;;8.93;3.30;;;12.50;99.90;;;;;;5078501;28;20535;-74
2021/08/02 05:18:58;;;;;;;9.18;3.42;;;12.50;99.90;;;;;;5072371;28;20468;-74
2021/08/02 05:21:24;;;;;;;7.75;3.10;;;12.60;99.90;;;;;;5073706;28;20048;-75
2021/08/02 05:23:50;;;;;;;8.23;2.95;;;12.70;99.90;;;;;;5077113;28;20064;-74
2021/08/02 05:26:20;;;;;;;8.55;3.95;;;12.80;99.90;;;;;;5076770;28;20040;-74
2021/08/02 05:28:46;;;;;;;7.20;2.70;;;12.80;99.90;;;;;;5074497;28;20443;-74
2021/08/02 05:31:12;;;;;;;6.35;3.42;;;12.80;99.90;;;;;;5080012;28;20044;-74
2021/08/02 05:33:38;;;;;;;8.73;2.72;;;12.80;99.90;;;;;;5081262;28;20178;-75
2021/08/02 05:36:04;;;;;;;7.20;2.58;;;12.90;99.90;;;;;;5041842;28;20074;-75
2021/08/02 05:38:31;;;;;;;8.32;3.00;;;12.90;99.90;;;;;;5061447;28;20040;-74
2021/08/02 05:40:58;;;;;;;9.63;3.30;;;13.00;99.90;;;;;;5084547;28;20040;-74
2021/08/02 05:43:25;;;;;;;8.82;3.30;;;13.00;99.90;;;;;;5077045;28;20040;-75
2021/08/02 05:45:51;;;;;;;6.40;3.03;;;13.10;99.90;;;;;;5085529;28;20040;-74
2021/08/02 05:48:21;;;;;;;6.85;2.80;;;13.10;99.90;;;;;;5065400;28;20497;-74
2021/08/02 05:50:47;;;;;;;7.82;3.03;;;13.20;99.90;;;;;;5080177;28;20040;-74
2021/08/02 05:53:12;;;;;;;5.25;2.67;;;13.30;99.90;;;;;;5076944;28;20052;-74
2021/08/02 05:55:39;;;;;;;8.65;2.67;;;13.30;99.90;;;;;;5059212;28;20379;-74
2021/08/02 05:58:05;;;;;;;7.80;3.15;;;13.40;99.90;;;;;;5079982;28;20055;-75
2021/08/02 06:00:31;;;;;;;8.27;2.40;;;13.50;99.90;;;;;;5074962;28;20071;-75
2021/08/02 06:02:57;;;;;;;5.78;2.42;;;13.60;99.90;;;;;;5080687;28;20482;-74
2021/08/02 06:05:24;;;;;;;7.80;2.60;;;13.60;99.90;;;;;;5061592;28;20036;-75
2021/08/02 06:07:50;;;;;;;10.48;2.58;;;13.70;99.90;;;;;;5079482;28;20044;-75
2021/08/02 06:10:16;;;;;;;5.07;2.30;;;13.80;99.90;;;;;;5083040;28;20036;-74
2021/08/02 06:12:42;;;;;;;4.90;2.30;;;13.90;99.90;;;;;;5062753;28;20242;-75
2021/08/02 06:15:10;;;;;;;7.88;3.00;;;13.90;99.90;;;;;;5079299;28;20036;-75
2021/08/02 06:17:37;;;;;;;8.70;2.38;;;14.00;99.90;;;;;;5068120;28;20044;-76
2021/08/02 06:20:04;;;;;;;5.88;2.10;;;14.10;99.90;;;;;;5078209;28;20040;-75
2021/08/02 06:22:30;;;;;;;10.20;2.47;;;14.10;99.90;;;;;;5080259;28;20044;-74
2021/08/02 06:24:56;;;;;;;6.57;2.05;;;14.20;99.90;;;;;;5072594;28;20449;-74
2021/08/02 06:27:22;;;;;;;8.18;1.90;;;14.20;99.90;;;;;;5059560;28;20047;-73
2021/08/02 06:29:48;;;;;;;8.55;2.50;;;14.30;99.90;;;;;;5064866;28;20490;-74
2021/08/02 06:32:14;;;;;;;6.40;1.80;;;14.40;99.90;;;;;;5071233;28;20770;-75
2021/08/02 06:34:42;;;;;;;10.55;2.05;;;14.50;99.90;;;;;;5071494;28;20695;-75
2021/08/02 06:37:12;;;;;;;11.35;2.00;;;14.60;99.90;;;;;;5064520;28;20038;-74
2021/08/02 06:39:42;;;;;;;7.35;1.80;;;14.60;99.90;;;;;;5072237;28;20043;-74
2021/08/02 06:42:09;;;;;;;6.47;1.83;;;14.70;99.90;;;;;;5078040;28;20131;-74
2021/08/02 06:44:35;;;;;;;7.68;2.25;;;14.80;99.90;;;;;;5070961;28;20136;-74
2021/08/02 06:47:01;;;;;;;6.72;1.73;;;14.90;99.90;;;;;;5056856;28;20051;-74
2021/08/02 06:49:33;;;;;;;7.28;1.85;;;15.00;99.90;;;;;;5057685;28;20029;-76
2021/08/02 06:51:59;;;;;;;4.95;1.60;;;15.20;99.90;;;;;;5071616;28;20409;-74
2021/08/02 06:54:24;;;;;;;5.15;1.40;;;15.30;99.90;;;;;;5045083;28;20471;-75
2021/08/02 06:56:50;;;;;;;6.85;1.60;;;15.40;99.90;;;;;;5050341;28;20040;-74
2021/08/02 06:59:16;;;;;;;5.88;1.73;;;15.50;99.90;;;;;;5066303;28;20430;-75
2021/08/02 07:01:42;;;;;;;4.97;1.75;;;15.60;99.90;;;;;;5070786;28;20163;-75
2021/08/02 07:04:08;;;;;;;5.65;1.42;;;15.70;99.90;;;;;;5071853;28;20040;-75
2021/08/02 07:06:35;;;;;;;5.65;1.50;;;15.80;99.90;;;;;;5075804;28;20127;-74
2021/08/02 07:09:01;;;;;;;10.15;1.70;;;15.90;99.90;;;;;;5074039;28;20128;-74
2021/08/02 07:11:27;;;;;;;5.38;1.92;;;16.10;99.90;;;;;;5073246;28;20529;-74
2021/08/02 07:13:54;;;;;;;6.93;1.50;;;16.20;99.90;;;;;;5075681;28;20108;-74
2021/08/02 07:16:23;;;;;;;5.40;1.20;;;16.30;99.90;;;;;;5076932;28;20090;-75
2021/08/02 07:18:51;;;;;;;4.57;1.40;;;16.40;99.90;;;;;;5074117;28;20041;-74
2021/08/02 07:21:18;;;;;;;5.68;1.40;;;16.60;99.90;;;;;;5075453;28;20044;-73
2021/08/02 07:23:45;;;;;;;3.97;1.25;;;16.70;99.90;;;;;;5077218;28;20055;-75
2021/08/02 07:26:10;;;;;;;6.53;1.52;;;16.90;99.90;;;;;;5056614;28;20107;-75
2021/08/02 07:28:36;;;;;;;4.05;1.20;;;17.00;99.90;;;;;;5073915;28;20120;-74
2021/08/02 07:31:02;;;;;;;8.75;1.33;;;17.10;98.90;;;;;;5071065;28;20067;-74
2021/08/02 07:33:28;;;;;;;4.57;1.23;;;17.20;98.90;;;;;;5077063;28;20098;-75
2021/08/02 07:35:55;;;;;;;6.35;1.20;;;17.30;98.70;;;;;;5077215;28;20064;-76
2021/08/02 07:38:21;;;;;;;7.03;1.08;;;17.20;97.60;;;;;;5065159;28;20036;-75
2021/08/02 07:40:48;;;;;;;4.75;1.30;;;17.10;97.40;;;;;;5074905;28;20045;-74
2021/08/02 07:43:14;;;;;;;5.03;1.30;;;16.90;97.90;;;;;;5071273;28;20098;-75
2021/08/02 07:45:43;;;;;;;5.72;1.20;;;16.90;98.50;;;;;;5053499;28;20499;-74
2021/08/02 07:48:09;;;;;;;7.05;1.52;;;16.90;98.60;;;;;;5073356;28;20118;-74
2021/08/02 07:50:35;;;;;;;4.72;1.38;;;16.90;98.10;;;;;;5066198;28;20143;-74
2021/08/02 07:53:01;;;;;;;10.15;1.90;;;16.90;97.90;;;;;;5060334;28;20094;-74
2021/08/02 07:55:27;;;;;;;5.15;1.50;;;16.90;98.10;;;;;;5069404;28;20068;-74
2021/08/02 07:57:53;;;;;;;5.72;1.23;;;16.90;98.50;;;;;;5075423;28;20567;-74
2021/08/02 08:00:19;;;;;;;7.22;1.50;;;16.90;98.70;;;;;;5063177;28;20133;-77
2021/08/02 08:02:46;;;;;;;7.88;1.55;;;16.90;98.90;;;;;;5064823;28;20036;-74
2021/08/02 08:05:13;;;;;;;6.43;1.30;;;16.90;99.10;;;;;;5071597;28;20036;-75
2021/08/02 08:07:41;;;;;;;7.28;1.85;;;17.00;99.10;;;;;;5077449;28;20449;-73
2021/08/02 08:10:08;;;;;;;7.93;1.40;;;17.30;98.90;;;;;;5074736;28;20032;-75
2021/08/02 08:12:34;;;;;;;7.50;1.58;;;17.70;98.80;;;;;;5053196;28;20055;-73
2021/08/02 08:15:00;;;;;;;6.57;1.27;;;17.80;97.80;;;;;;5074494;28;20048;-74
2021/08/02 08:17:29;;;;;;;5.75;1.20;;;17.90;97.50;;;;;;5071626;28;20048;-73
2021/08/02 08:19:54;;;;;;;8.52;1.27;;;18.20;97.00;;;;;;5072269;28;20105;-75
2021/08/02 08:22:20;;;;;;;5.80;1.23;;;18.50;96.20;;;;;;5069889;28;20072;-74
2021/08/02 08:24:49;;;;;;;4.53;1.00;;;18.80;96.40;;;;;;5073972;28;20068;-75
2021/08/02 08:27:15;;;;;;;4.35;0.90;;;19.00;95.50;;;;;;5073733;28;20036;-75
2021/08/02 08:29:41;;;;;;;4.60;0.80;;;19.00;94.30;;;;;;5079804;28;20104;-75
2021/08/02 08:32:07;;;;;;;6.82;1.15;;;19.00;94.70;;;;;;5060929;28;20036;-74
2021/08/02 08:34:33;;;;;;;6.60;1.08;;;19.00;94.40;;;;;;5070095;28;20047;-74
2021/08/02 08:36:59;;;;;;;5.78;1.00;;;19.00;93.90;;;;;;5068746;28;20040;-74
2021/08/02 08:39:25;;;;;;;4.40;1.20;;;18.90;93.80;;;;;;5061741;28;20090;-74
2021/08/02 08:41:51;;;;;;;6.25;1.00;;;18.90;93.90;;;;;;5067896;28;20036;-74
2021/08/02 08:44:20;;;;;;;3.85;1.10;;;18.80;93.60;;;;;;5079398;28;20128;-74
2021/08/02 08:46:46;;;;;;;3.60;1.10;;;18.80;93.50;;;;;;5071255;28;20599;-75
2021/08/02 08:49:12;;;;;;;6.05;0.98;;;18.80;94.00;;;;;;5078742;28;20138;-74
2021/08/02 08:51:45;;;;;;;3.53;1.00;;;18.90;93.60;;;;;;5076272;28;20180;-74
2021/08/02 08:54:11;;;;;;;4.90;1.30;;;18.90;93.20;;;;;;5072278;28;20045;-75
2021/08/02 08:56:37;;;;;;;6.18;1.08;;;18.90;93.60;;;;;;5056636;28;20448;-74
2021/08/02 08:59:03;;;;;;;5.68;1.23;;;19.00;93.40;;;;;;5076191;28;20672;-74
2021/08/02 09:01:30;;;;;;;5.53;1.00;;;19.10;93.00;;;;;;5076600;28;20568;-74
2021/08/02 09:03:57;;;;;;;5.35;1.20;;;19.20;92.70;;;;;;5075341;28;20082;-74
2021/08/02 09:06:24;;;;;;;5.80;1.10;;;19.20;92.70;;;;;;5074756;28;20562;-74
2021/08/02 09:08:51;;;;;;;5.60;1.15;;;19.30;92.90;;;;;;5071983;28;20036;-76
2021/08/02 09:11:22;;;;;;;6.43;1.17;;;19.20;92.70;;;;;;5068821;28;20175;-75
2021/08/02 09:13:49;;;;;;;4.97;1.20;;;19.20;92.50;;;;;;5068765;28;20036;-75
2021/08/02 09:16:25;;;;;;;5.40;1.20;;;19.30;92.70;;;;;;5054854;28;20125;-77
2021/08/02 09:19:03;;;;;;;6.13;1.20;;;19.40;93.30;;;;;;5077342;28;20066;-78
2021/08/02 09:21:54;;;;;;;5.03;1.45;;;19.50;93.30;;;;;;5068886;28;20062;-77
2021/08/02 09:24:34;;;;;;;5.53;1.38;;;19.40;93.20;;;;;;5073725;28;20036;-76
2021/08/02 09:27:01;;;;;;;8.18;1.60;;;19.30;93.00;;;;;;5071963;28;20131;-77
2021/08/02 09:29:32;;;;;;;3.90;1.00;;;19.10;93.30;;;;;;5082174;28;20462;-78
2021/08/02 09:32:00;;;;;;;4.65;1.38;;;19.00;93.30;;;;;;5077117;28;20502;-76
2021/08/02 09:34:26;;;;;;;5.63;1.00;;;19.00;93.70;;;;;;5054536;28;20033;-76
2021/08/02 09:36:57;;;;;;;5.28;1.10;;;19.00;93.10;;;;;;5060271;28;20028;-77
2021/08/02 09:39:29;;;;;;;6.28;1.40;;;19.10;93.30;;;;;;5059990;28;20451;-79
2021/08/02 09:42:10;;;;;;;5.32;1.40;;;19.40;93.50;;;;;;5078504;28;20086;-76
2021/08/02 09:44:36;;;;;;;3.80;1.25;;;19.70;92.80;;;;;;5054616;28;20040;-77
2021/08/02 09:47:07;;;;;;;6.82;1.42;;;19.80;92.60;;;;;;5069807;28;20062;-78
2021/08/02 09:49:47;;;;;;;6.68;1.17;;;19.70;92.60;;;;;;5074845;28;20050;-77
2021/08/02 09:52:14;;;;;;;5.03;1.00;;;19.50;91.50;;;;;;5064462;28;20090;-77
2021/08/02 09:54:41;;;;;;;6.57;1.25;;;19.20;92.20;;;;;;5075940;28;20072;-77
2021/08/02 09:57:07;;;;;;;5.97;1.27;;;18.90;92.10;;;;;;5066419;28;20040;-76
2021/08/02 09:59:39;;;;;;;3.95;1.20;;;18.60;93.40;;;;;;5076826;28;20399;-74
2021/08/02 10:02:06;;;;;;;6.53;1.17;;;18.20;94.40;;;;;;5076546;28;20036;-76
2021/08/02 10:04:32;;;;;;;4.50;1.50;;;17.80;95.00;;;;;;5070092;28;20048;-76
2021/08/02 10:06:59;;;;;;;5.28;1.23;;;17.60;95.40;;;;;;5070341;28;20048;-76
2021/08/02 10:09:29;;;;;;;5.40;1.40;;;17.40;96.00;;;;;;5089853;28;20123;-76
2021/08/02 10:11:56;;;;;;;3.92;1.02;;;17.20;96.60;;;;;;5059841;28;20050;-75
2021/08/02 10:14:29;;;;;;;5.97;1.10;;;17.10;96.80;;;;;;5078408;28;20108;-76
2021/08/02 10:16:58;;;;;;;6.35;1.33;;;17.10;97.10;;;;;;5075691;28;20122;-75
2021/08/02 10:19:39;;;;;;;7.32;1.30;;;17.10;97.20;;;;;;5071512;28;20028;-76
2021/08/02 10:22:06;;;;;;;7.65;1.10;;;17.10;97.20;;;;;;5070171;28;20528;-75
2021/08/02 10:24:32;;;;;;;4.40;0.90;;;17.30;97.50;;;;;;5069719;28;20105;-75
2021/08/02 10:27:01;;;;;;;4.70;1.23;;;17.30;97.80;;;;;;5051987;28;20052;-76
2021/08/02 10:29:38;;;;;;;3.70;0.90;;;17.50;97.70;;;;;;5078019;28;20102;-74
2021/08/02 10:32:05;;;;;;;3.13;1.00;;;17.60;97.30;;;;;;5060266;28;20089;-76
2021/08/02 10:34:30;;;;;;;3.97;1.30;;;17.70;97.30;;;;;;5054326;28;20033;-77
2021/08/02 10:37:04;;;;;;;3.13;0.80;;;17.90;96.90;;;;;;5054218;28;20035;-78
2021/08/02 10:39:35;;;;;;;4.28;0.80;;;18.10;96.40;;;;;;5061429;28;20121;-76
2021/08/02 10:42:14;;;;;;;3.28;0.85;;;18.40;95.40;;;;;;5074738;28;20166;-76
2021/08/02 10:44:54;;;;;;;5.63;1.10;;;18.50;93.90;;;;;;5081145;28;20036;-77
2021/08/02 10:47:20;;;;;;;5.30;0.80;;;18.70;95.30;;;;;;5082338;28;20051;-74
2021/08/02 10:49:51;;;;;;;4.32;0.90;;;19.00;93.10;;;;;;5075006;28;20403;-75
2021/08/02 10:52:27;;;;;;;4.55;0.80;;;19.20;92.30;;;;;;5063904;28;20439;-75
2021/08/02 10:54:54;;;;;;;4.32;0.80;;;19.30;92.00;;;;;;5080364;28;20040;-74
2021/08/02 10:57:19;;;;;;;4.78;0.80;;;19.20;92.40;;;;;;5073866;28;20068;-74
2021/08/02 10:59:45;;;;;;;5.13;0.80;;;19.30;91.90;;;;;;5058431;28;20064;-75
2021/08/02 11:02:12;;;;;;;4.35;0.90;;;19.30;92.60;;;;;;5077506;28;20475;-76
2021/08/02 11:04:39;;;;;;;6.13;1.23;;;19.30;92.30;;;;;;5072314;28;20491;-76
2021/08/02 11:07:06;;;;;;;4.20;1.30;;;19.30;91.20;;;;;;5076214;28;20388;-75
2021/08/02 11:09:34;;;;;;;2.70;0.82;;;19.20;91.60;;;;;;5055176;28;20033;-75
2021/08/02 11:12:11;;;;;;;3.65;0.70;;;18.90;92.20;;;;;;5071481;28;20563;-75
2021/08/02 11:15:06;;;;;;;4.78;0.90;;;18.70;91.70;;;;;;5087596;28;20047;-75
2021/08/02 11:17:32;;;;;;;2.75;0.60;;;18.40;91.60;;;;;;5061992;28;20454;-73
2021/08/02 11:20:00;;;;;;;4.05;0.98;;;18.20;92.30;;;;;;5074297;28;20047;-75
2021/08/02 11:22:26;;;;;;;2.33;0.80;;;18.00;92.70;;;;;;5060417;28;20071;-75
2021/08/02 11:24:54;;;;;;;3.17;0.60;;;17.90;93.00;;;;;;5057783;28;20068;-75
2021/08/02 11:27:20;;;;;;;4.45;0.95;;;17.70;93.40;;;;;;5077423;28;20383;-74
2021/08/02 11:29:49;;;;;;;2.65;1.00;;;17.70;93.50;;;;;;5064557;28;20112;-74
2021/08/02 11:32:15;;;;;;;1.92;0.60;;;17.70;93.70;;;;;;5075053;28;20032;-74
2021/08/02 11:34:43;;;;;;;3.45;0.98;;;17.70;94.00;;;;;;5061858;28;20041;-73
2021/08/02 11:37:19;;;;;;;2.67;0.70;;;17.80;94.40;;;;;;5076820;28;20028;-76
2021/08/02 11:39:48;;;;;;;4.15;0.88;;;17.90;94.20;;;;;;5073883;28;20043;-75
2021/08/02 11:42:16;;;;;;;5.05;1.08;;;18.10;94.40;;;;;;5074078;28;20047;-74
2021/08/02 11:44:44;;;;;;;3.03;0.85;;;18.30;94.00;;;;;;5074146;28;20051;-74
2021/08/02 11:47:38;;;;;;;3.85;0.80;;;18.60;93.50;;;;;;5081777;28;20036;-74
2021/08/02 11:50:08;;;;;;;3.17;0.80;;;18.90;92.10;;;;;;5058786;28;20583;-74
2021/08/02 11:52:37;;;;;;;4.53;1.17;;;18.90;92.10;;;;;;5065954;28;20074;-74
2021/08/02 11:55:06;;;;;;;3.38;0.80;;;18.90;90.90;;;;;;5056800;28;20470;-74
2021/08/02 11:57:33;;;;;;;5.73;0.90;;;18.90;91.20;;;;;;5069776;28;20044;-75
2021/08/02 12:00:01;;;;;;;3.33;0.70;;;18.90;91.60;;;;;;5077568;28;20044;-75
2021/08/02 12:02:34;;;;;;;3.63;0.77;;;19.00;92.00;;;;;;5075225;28;20048;-74
2021/08/02 12:05:01;;;;;;;3.08;0.60;;;19.00;92.20;;;;;;5072160;28;20028;-73
2021/08/02 12:07:28;;;;;;;1.73;0.52;;;19.00;91.80;;;;;;5077233;28;20044;-74
2021/08/02 12:09:57;;;;;;;3.30;1.02;;;19.10;91.70;;;;;;5080294;28;20115;-74
2021/08/02 12:12:24;;;;;;;2.53;0.60;;;19.00;91.50;;;;;;5061788;28;20037;-74
2021/08/02 12:14:50;;;;;;;4.82;0.73;;;19.10;90.60;;;;;;5076297;28;20454;-76
2021/08/02 12:17:16;;;;;;;1.35;0.60;;;19.10;90.60;;;;;;5076881;28;20123;-77
2021/08/02 12:19:52;;;;;;;2.58;0.60;;;19.10;90.70;;;;;;5073238;28;20127;-77
2021/08/02 12:22:22;;;;;;;3.67;0.70;;;19.20;91.30;;;;;;5075268;28;20067;-77
2021/08/02 12:24:59;;;;;;;4.03;1.00;;;19.20;91.00;;;;;;5071193;28;20036;-78
2021/08/02 12:27:26;;;;;;;3.22;0.95;;;19.30;91.20;;;;;;5077362;28;20568;-81
2021/08/02 12:30:04;;;;;;;2.22;0.60;;;19.40;90.20;;;;;;5077501;28;20039;-77
2021/08/02 12:32:41;;;;;;;2.88;0.77;;;19.50;90.00;;;;;;5074498;28;20093;-78
2021/08/02 12:35:13;;;;;;;4.22;1.08;;;19.60;90.70;;;;;;5072296;28;20044;-76
2021/08/02 12:37:40;;;;;;;3.78;0.73;;;19.70;91.00;;;;;;5073917;28;20091;-77
2021/08/02 12:40:09;;;;;;;2.83;0.90;;;19.80;89.70;;;;;;5060859;28;20407;-78
2021/08/02 12:42:37;;;;;;;1.63;0.65;;;20.00;86.60;;;;;;5072818;28;20046;-79
2021/08/02 12:45:05;;;;;;;4.38;0.70;;;20.20;86.50;;;;;;5070942;28;20039;-79
2021/08/02 12:47:31;;;;;;;2.17;0.65;;;20.40;86.50;;;;;;5058445;28;20063;-77
2021/08/02 12:49:58;;;;;;;1.88;0.60;;;20.50;85.50;;;;;;5062104;28;20879;-77
2021/08/02 12:52:29;;;;;;;3.00;0.70;;;20.50;84.40;;;;;;5071052;28;20119;-78
2021/08/02 12:54:56;;;;;;;2.35;0.73;;;20.50;86.30;;;;;;5069369;28;20119;-74
2021/08/02 12:57:26;;;;;;;2.13;0.80;;;20.40;84.80;;;;;;5073050;28;20096;-75